Time;durP1;ratioP1;P1;durP2;ratioP2;P2;SDS_P1;SDS_P2;PMS_P1;PMS_P2;Temp;Humidity;BMP_temperature;BMP_pressure;BME280_temperature;BME280_humidity;BME280_pressure;Samples;Min_cycle;Max_cycle;Signal;HPM_P1;HPM_P2
2022/08/03 00:02:11;;;;;;;4.22;1.75;;;;;;;18.63;67.02;100676.28;5009775;28;20033;-78
2022/08/03 00:05:15;;;;;;;3.53;1.77;;;;;;;18.48;67.24;100672.31;5009270;28;20060;-79
2022/08/03 00:08:19;;;;;;;6.32;1.80;;;;;;;18.50;67.34;100678.28;5009431;28;20433;-78
2022/08/03 00:11:23;;;;;;;3.10;1.77;;;;;;;18.49;66.63;100684.56;5009742;28;20129;-78
2022/08/03 00:14:26;;;;;;;5.72;1.75;;;;;;;18.39;66.77;100683.66;5009448;28;20147;-78
2022/08/03 00:17:29;;;;;;;3.75;1.60;;;;;;;18.44;67.92;100681.44;5008936;28;20107;-79
2022/08/03 00:20:32;;;;;;;4.72;1.60;;;;;;;18.45;68.27;100678.69;5008615;28;20045;-79
2022/08/03 00:23:36;;;;;;;4.55;1.60;;;;;;;18.49;67.68;100676.63;5008873;28;20176;-79
2022/08/03 00:26:39;;;;;;;4.00;1.83;;;;;;;18.42;67.37;100680.75;5009360;28;20048;-78
2022/08/03 00:29:42;;;;;;;5.75;1.70;;;;;;;18.38;67.04;100687.25;5009704;28;20049;-78
2022/08/03 00:32:46;;;;;;;7.15;1.90;;;;;;;18.26;67.05;100689.13;5008443;28;20708;-79
2022/08/03 00:35:50;;;;;;;4.82;1.90;;;;;;;18.23;67.37;100678.78;5008326;28;20077;-78
2022/08/03 00:38:54;;;;;;;5.18;1.70;;;;;;;18.19;67.19;100683.50;5008382;28;20045;-78
2022/08/03 00:42:03;;;;;;;3.35;1.50;;;;;;;18.07;67.79;100681.84;5008595;28;20100;-78
2022/08/03 00:45:07;;;;;;;3.63;2.00;;;;;;;18.13;68.62;100684.00;5008445;28;20513;-78
2022/08/03 00:48:11;;;;;;;8.73;1.98;;;;;;;18.07;69.56;100679.19;5009481;28;20049;-78
2022/08/03 00:51:14;;;;;;;3.75;1.75;;;;;;;18.11;69.20;100680.63;5009203;28;20825;-78
2022/08/03 00:54:20;;;;;;;7.82;1.55;;;;;;;18.05;68.95;100675.81;5009290;28;20045;-78
2022/08/03 00:57:23;;;;;;;5.93;2.17;;;;;;;18.05;68.94;100686.41;4997080;28;20049;-78
2022/08/03 01:00:27;;;;;;;5.22;1.75;;;;;;;17.95;68.55;100680.19;5008778;28;20048;-78
2022/08/03 01:03:30;;;;;;;3.40;1.63;;;;;;;17.69;69.84;100675.16;5008354;28;20045;-78
2022/08/03 01:06:44;;;;;;;5.05;1.80;;;;;;;17.75;69.48;100682.59;4996289;28;20389;-78
2022/08/03 01:09:54;;;;;;;5.82;2.15;;;;;;;17.74;69.50;100678.28;5008306;28;20041;-78
2022/08/03 01:13:05;;;;;;;3.70;1.70;;;;;;;17.70;69.49;100674.16;5008259;28;20045;-78
2022/08/03 01:16:16;;;;;;;6.65;2.13;;;;;;;17.79;69.51;100667.34;5008066;28;20073;-78
2022/08/03 01:19:44;;;;;;;4.57;1.85;;;;;;;17.78;68.98;100678.91;5008194;28;20112;-78
2022/08/03 01:23:25;;;;;;;4.57;1.70;;;;;;;17.73;69.96;100676.56;5008179;28;20053;-78
2022/08/03 01:26:59;;;;;;;3.50;1.67;;;;;;;17.85;69.53;100680.09;5008027;28;20064;-78
2022/08/03 01:30:07;;;;;;;4.53;1.67;;;;;;;17.80;70.13;100680.44;5008826;28;20045;-78
2022/08/03 01:33:19;;;;;;;4.72;1.83;;;;;;;17.81;69.86;100674.19;5008492;28;20045;-79
2022/08/03 01:36:36;;;;;;;3.17;1.58;;;;;;;17.84;69.84;100671.31;5008611;28;20037;-79
2022/08/03 01:39:41;;;;;;;8.63;1.80;;;;;;;17.53;70.79;100677.31;4995701;28;20521;-78
2022/08/03 01:42:46;;;;;;;4.93;1.80;;;;;;;17.36;70.60;100681.31;5008022;28;20041;-79
2022/08/03 01:45:50;;;;;;;3.72;1.48;;;;;;;17.37;70.92;100670.59;5008371;28;20065;-79
2022/08/03 01:48:55;;;;;;;4.22;1.60;;;;;;;17.47;70.70;100669.88;5008283;28;20125;-79
2022/08/03 01:51:59;;;;;;;3.80;1.80;;;;;;;17.41;70.73;100665.91;5008581;28;20486;-79
2022/08/03 05:00:13;;;;;;;6.50;2.60;;;;;;;16.15;75.61;100696.53;5125884;27;20727;-65
2022/08/03 05:03:16;;;;;;;6.38;2.35;;;;;;;15.99;76.31;100690.69;5125346;27;20969;-65
2022/08/03 05:06:19;;;;;;;6.50;2.75;;;;;;;16.10;75.70;100692.53;5125617;27;20046;-67
2022/08/03 05:09:23;;;;;;;9.70;2.90;;;;;;;16.12;75.56;100693.28;5125600;27;20043;-66
2022/08/03 05:12:26;;;;;;;7.45;2.60;;;;;;;15.92;76.94;100697.34;5136204;27;20070;-65
2022/08/03 05:15:30;;;;;;;3.42;2.00;;;;;;;16.10;76.39;100697.81;5125300;27;20128;-65
2022/08/03 05:18:34;;;;;;;8.25;2.38;;;;;;;16.44;74.82;100691.75;5124782;28;20073;-65
2022/08/03 05:21:38;;;;;;;4.15;2.10;;;;;;;16.74;72.38;100699.16;5125010;27;20065;-65
2022/08/03 05:24:41;;;;;;;3.28;1.83;;;;;;;16.84;71.02;100709.91;5125942;27;20522;-65
2022/08/03 05:45:44;;;;;;;3.03;1.50;;;;;;;17.63;68.18;100696.78;6157589;23;20039;-63
2022/08/03 05:53:06;;;;;;;3.75;1.58;;;;;;;17.69;68.33;100698.94;6251992;23;20126;-65
2022/08/03 05:56:11;;;;;;;4.00;1.83;;;;;;;17.81;68.03;100700.66;6252014;23;20504;-64
2022/08/03 05:59:14;;;;;;;5.38;1.70;;;;;;;17.84;68.10;100695.13;6250140;23;20086;-65
2022/08/03 06:02:18;;;;;;;6.07;2.10;;;;;;;17.89;68.59;100692.94;6253145;23;20046;-64
2022/08/03 06:21:49;;;;;;;8.57;1.95;;;;;;;18.42;66.91;100694.00;5044708;28;20450;-70
2022/08/03 06:24:52;;;;;;;11.40;2.80;;;;;;;18.50;67.06;100691.53;5044984;28;20565;-72
2022/08/03 06:27:55;;;;;;;12.23;2.80;;;;;;;18.71;66.37;100689.75;5044045;28;20047;-75
2022/08/03 06:30:59;;;;;;;16.30;2.65;;;;;;;18.74;64.84;100691.34;5045178;28;20586;-73
2022/08/03 06:34:04;;;;;;;13.73;2.50;;;;;;;18.80;64.55;100681.06;5045241;28;20132;-75
2022/08/03 06:37:08;;;;;;;12.18;2.42;;;;;;;18.91;64.70;100687.25;5045690;28;20044;-75
2022/08/03 06:40:17;;;;;;;10.40;1.92;;;;;;;19.08;64.34;100681.38;5044604;28;20189;-83
2022/08/03 06:43:20;;;;;;;11.18;2.33;;;;;;;19.19;63.23;100689.25;5045429;28;20102;-78
2022/08/03 06:46:23;;;;;;;9.25;2.50;;;;;;;19.32;63.34;100677.59;5045338;28;20558;-77
2022/08/03 06:49:27;;;;;;;13.45;2.22;;;;;;;19.36;63.69;100685.13;5045217;28;20044;-77
2022/08/03 06:52:30;;;;;;;16.13;2.45;;;;;;;19.52;63.78;100684.63;5045363;28;20094;-69
2022/08/03 06:55:33;;;;;;;24.00;3.75;;;;;;;19.63;63.40;100681.88;5044521;28;20177;-70
2022/08/03 06:58:37;;;;;;;33.72;4.60;;;;;;;19.70;63.36;100674.25;5043738;28;20049;-70
2022/08/03 07:01:41;;;;;;;25.88;4.05;;;;;;;19.87;62.95;100675.41;5042860;28;20047;-70
2022/08/03 07:04:45;;;;;;;21.90;3.85;;;;;;;19.99;62.62;100674.31;5044061;28;20048;-69
2022/08/03 07:07:48;;;;;;;15.88;2.70;;;;;;;20.11;61.66;100675.88;5044559;28;20424;-68
2022/08/03 07:10:52;;;;;;;9.85;2.40;;;;;;;20.23;61.44;100675.72;5044403;28;20535;-68
2022/08/03 07:13:55;;;;;;;14.18;2.75;;;;;;;20.36;61.58;100671.84;5045083;28;20043;-68
2022/08/03 07:16:58;;;;;;;13.68;2.90;;;;;;;20.46;60.85;100669.19;5045119;28;20533;-68
2022/08/03 07:20:05;;;;;;;10.75;2.45;;;;;;;20.54;60.48;100672.00;5044829;28;20133;-68
2022/08/03 07:23:08;;;;;;;15.13;2.58;;;;;;;20.63;60.26;100673.81;5031479;28;20078;-68
2022/08/03 07:26:12;;;;;;;12.13;2.72;;;;;;;20.81;59.11;100673.94;5031670;28;20463;-67
2022/08/03 07:29:15;;;;;;;7.22;2.72;;;;;;;20.96;58.76;100681.44;5031289;28;20125;-66
2022/08/03 07:32:18;;;;;;;8.50;3.17;;;;;;;21.14;58.25;100691.19;5031469;28;20478;-66
2022/08/03 07:35:22;;;;;;;11.43;2.72;;;;;;;21.24;58.11;100677.84;5031562;28;20048;-67
2022/08/03 07:38:25;;;;;;;8.63;2.08;;;;;;;21.33;57.66;100678.81;5031132;28;20044;-66
2022/08/03 07:41:28;;;;;;;12.18;2.67;;;;;;;21.45;57.84;100677.69;5031423;28;20447;-67
2022/08/03 07:44:31;;;;;;;7.97;2.50;;;;;;;21.53;58.48;100680.41;5031405;28;20084;-66
2022/08/03 07:47:35;;;;;;;9.40;2.00;;;;;;;21.70;56.28;100678.81;5031342;28;20059;-66
2022/08/03 07:50:38;;;;;;;6.05;1.98;;;;;;;21.87;56.72;100676.34;5031161;28;20505;-66
2022/08/03 07:53:41;;;;;;;6.90;1.85;;;;;;;21.87;56.82;100677.16;5031505;28;20137;-67
2022/08/03 07:56:45;;;;;;;12.35;2.08;;;;;;;22.21;55.45;100669.41;5030804;28;20102;-66
2022/08/03 08:06:03;;;;;;;8.55;1.70;;;;;;;22.42;53.77;100649.59;5111754;28;20044;-64
2022/08/03 08:22:28;;;;;;;6.50;1.70;;;;;;;23.15;51.42;100638.63;5041985;28;20395;-66
2022/08/03 08:25:33;;;;;;;8.82;1.58;;;;;;;23.32;51.07;100627.00;5041261;28;20125;-66
2022/08/03 08:28:36;;;;;;;2.95;1.30;;;;;;;23.56;50.67;100630.78;5041944;28;20079;-66
2022/08/03 08:31:39;;;;;;;5.15;1.52;;;;;;;23.39;51.75;100636.06;5041749;28;20061;-66
2022/08/03 08:34:42;;;;;;;8.35;2.00;;;;;;;23.30;51.84;100629.03;5042802;28;20068;-66
2022/08/03 08:37:46;;;;;;;5.80;1.92;;;;;;;23.38;51.16;100631.72;5042339;28;20132;-67
2022/08/03 08:40:49;;;;;;;6.85;1.60;;;;;;;23.46;50.08;100633.59;5041826;28;20095;-67
2022/08/03 08:43:53;;;;;;;6.10;1.55;;;;;;;23.78;49.18;100632.06;5040159;28;20045;-66
2022/08/03 08:47:01;;;;;;;10.48;1.70;;;;;;;23.71;49.57;100625.66;5041371;28;20052;-67
2022/08/03 08:50:06;;;;;;;5.38;1.60;;;;;;;23.77;49.93;100625.88;5045521;28;20044;-67
2022/08/03 08:53:12;;;;;;;5.05;1.30;;;;;;;23.77;49.75;100620.53;5020349;28;20447;-67
2022/08/03 08:56:17;;;;;;;4.85;1.50;;;;;;;24.04;48.58;100616.72;5019190;28;20101;-69
2022/08/03 08:59:21;;;;;;;3.38;1.30;;;;;;;24.27;46.87;100611.56;5019653;28;20446;-64
2022/08/03 09:02:28;;;;;;;3.42;1.30;;;;;;;24.25;48.44;100607.38;5021673;28;20052;-64
2022/08/03 09:05:31;;;;;;;5.15;1.52;;;;;;;24.56;45.85;100604.88;5022168;28;20560;-64
2022/08/03 09:08:34;;;;;;;5.40;1.60;;;;;;;24.53;46.17;100606.06;5020833;28;20126;-64
2022/08/03 09:11:41;;;;;;;3.35;1.17;;;;;;;24.66;46.01;100605.53;5019664;28;20094;-64
2022/08/03 09:14:45;;;;;;;3.50;1.20;;;;;;;24.58;46.71;100597.53;5019999;28;20052;-65
2022/08/03 09:17:50;;;;;;;3.33;1.30;;;;;;;24.71;46.25;100587.16;5020313;28;20521;-72
2022/08/03 09:21:12;;;;;;;3.40;1.27;;;;;;;24.73;46.65;100586.97;5000488;28;20154;-66
2022/08/03 09:24:20;;;;;;;3.22;1.17;;;;;;;24.87;45.09;100580.09;4988374;28;20087;-64
2022/08/03 09:27:23;;;;;;;2.50;1.13;;;;;;;25.34;43.93;100566.72;4988580;28;20096;-65
2022/08/03 09:30:26;;;;;;;5.03;1.20;;;;;;;25.63;43.03;100575.94;4988362;28;20044;-66
2022/08/03 09:33:30;;;;;;;2.95;1.00;;;;;;;25.79;41.92;100575.00;4998803;28;20054;-67
2022/08/03 09:36:42;;;;;;;2.47;1.00;;;;;;;26.20;39.76;100562.97;4989103;28;20096;-66
2022/08/03 09:39:46;;;;;;;4.03;1.13;;;;;;;26.42;39.45;100558.59;4988577;28;20574;-66
2022/08/03 09:42:56;;;;;;;3.33;1.50;;;;;;;27.03;37.93;100565.66;4988947;28;20506;-65
2022/08/03 09:46:04;;;;;;;2.85;1.20;;;;;;;26.63;39.06;100557.88;4988935;28;20617;-65
2022/08/03 09:49:11;;;;;;;2.22;1.00;;;;;;;26.29;39.74;100553.03;4987777;28;20053;-65
2022/08/03 09:52:21;;;;;;;2.25;0.98;;;;;;;26.23;39.69;100545.69;4988944;28;20127;-65
2022/08/03 09:55:24;;;;;;;3.53;1.27;;;;;;;26.09;41.88;100558.03;4988844;28;20107;-64
2022/08/03 09:58:29;;;;;;;8.90;1.50;;;;;;;26.13;42.04;100551.31;4989118;28;20118;-65
2022/08/03 10:01:34;;;;;;;7.82;1.50;;;;;;;26.25;42.18;100542.81;4988719;28;20569;-65
2022/08/03 10:04:46;;;;;;;4.85;1.60;;;;;;;26.28;40.52;100547.81;4987969;28;20091;-65
2022/08/03 10:07:50;;;;;;;2.17;1.00;;;;;;;26.32;39.45;100549.13;4988668;28;20126;-65
2022/08/03 10:10:53;;;;;;;11.15;1.60;;;;;;;26.84;39.87;100548.28;4988106;28;20038;-66
2022/08/03 10:13:57;;;;;;;2.88;1.25;;;;;;;26.62;40.01;100532.09;4987989;28;20130;-66
2022/08/03 10:17:00;;;;;;;6.35;1.52;;;;;;;26.86;39.62;100535.50;4988477;28;20088;-65
2022/08/03 10:20:05;;;;;;;6.80;1.35;;;;;;;26.61;39.95;100538.47;4988142;28;20127;-65
2022/08/03 10:23:09;;;;;;;4.53;1.00;;;;;;;26.78;40.43;100524.88;4988153;28;20061;-65
2022/08/03 10:26:17;;;;;;;6.90;1.20;;;;;;;26.64;39.34;100530.06;4987854;28;20057;-64
2022/08/03 10:42:02;;;;;;;9.23;1.27;;;;;;;27.97;35.71;100510.09;5106009;27;20380;-67
2022/08/03 10:45:11;;;;;;;4.32;1.23;;;;;;;28.42;34.07;100509.81;5099387;28;20039;-65
2022/08/03 10:48:17;;;;;;;4.65;0.82;;;;;;;28.25;34.53;100503.91;5092292;28;20067;-65
2022/08/03 10:51:22;;;;;;;4.68;0.98;;;;;;;28.32;33.73;100507.47;5088455;28;20038;-64
2022/08/03 10:54:34;;;;;;;4.07;0.80;;;;;;;28.50;33.20;100505.13;5069837;28;20131;-66
2022/08/03 10:57:44;;;;;;;3.80;1.00;;;;;;;28.20;33.50;100496.41;5084252;28;20042;-67
2022/08/03 11:00:49;;;;;;;4.55;1.15;;;;;;;27.93;34.21;100495.41;5081672;28;20109;-66
2022/08/03 11:03:53;;;;;;;2.45;1.13;;;;;;;28.29;34.14;100489.03;5082047;28;20059;-66
2022/08/03 11:07:18;;;;;;;3.05;0.80;;;;;;;28.30;34.17;100493.38;5081543;28;20047;-67
2022/08/03 11:10:31;;;;;;;6.15;1.02;;;;;;;28.12;34.08;100487.69;5082012;28;20213;-66
2022/08/03 11:13:34;;;;;;;2.63;1.10;;;;;;;28.38;33.76;100485.16;5082424;28;20051;-65
2022/08/03 11:16:41;;;;;;;3.40;1.30;;;;;;;28.97;32.29;100481.97;5083608;28;20063;-66
2022/08/03 11:19:47;;;;;;;7.28;1.00;;;;;;;28.93;32.56;100477.19;5083601;28;20054;-66
2022/08/03 11:22:53;;;;;;;5.22;1.23;;;;;;;28.32;34.29;100477.88;5083000;28;20526;-65
2022/08/03 11:26:17;;;;;;;3.10;0.88;;;;;;;28.21;33.69;100475.75;5082797;28;20082;-66
2022/08/03 11:29:29;;;;;;;4.28;0.90;;;;;;;29.18;32.15;100472.13;5083373;28;20051;-66
2022/08/03 11:32:36;;;;;;;4.97;0.73;;;;;;;29.28;31.66;100467.16;5083119;28;20075;-66
2022/08/03 11:35:59;;;;;;;4.97;1.10;;;;;;;28.96;32.37;100471.38;5083209;28;20101;-67
2022/08/03 11:39:13;;;;;;;2.70;1.10;;;;;;;29.16;32.60;100463.41;5082030;28;20047;-66
2022/08/03 11:42:22;;;;;;;6.15;0.93;;;;;;;28.81;32.68;100465.31;5033966;28;20805;-66
2022/08/03 11:45:26;;;;;;;3.42;0.90;;;;;;;29.60;31.33;100464.72;5031251;28;20472;-66
2022/08/03 11:48:37;;;;;;;2.38;1.05;;;;;;;29.44;31.12;100468.63;5029457;28;20119;-67
2022/08/03 11:51:41;;;;;;;4.82;0.70;;;;;;;29.12;31.43;100465.66;5030135;28;20044;-67
2022/08/03 11:54:44;;;;;;;2.30;0.90;;;;;;;29.09;31.45;100467.94;5029216;28;20064;-66
2022/08/03 11:57:48;;;;;;;3.05;0.88;;;;;;;28.86;31.68;100455.63;5029566;28;20651;-66
2022/08/03 12:00:52;;;;;;;2.28;0.77;;;;;;;29.47;30.96;100443.16;5029611;28;20063;-66
2022/08/03 12:04:03;;;;;;;4.60;0.75;;;;;;;29.93;30.09;100455.81;5028587;28;20095;-67
2022/08/03 12:07:06;;;;;;;2.42;0.68;;;;;;;29.62;30.71;100446.53;5027307;28;20064;-67
2022/08/03 12:10:13;;;;;;;2.63;0.73;;;;;;;29.31;31.11;100444.38;5028963;28;20048;-67
2022/08/03 12:13:18;;;;;;;1.60;0.80;;;;;;;29.39;31.46;100436.94;5029104;28;20052;-67
2022/08/03 12:16:23;;;;;;;4.20;0.98;;;;;;;29.16;31.56;100445.41;5028503;28;20540;-67
2022/08/03 12:19:41;;;;;;;3.35;1.10;;;;;;;29.34;31.38;100439.41;5027794;28;20044;-67
2022/08/03 12:22:44;;;;;;;2.50;0.80;;;;;;;30.58;29.82;100429.78;5026963;28;20103;-67
2022/08/03 12:25:47;;;;;;;2.63;1.27;;;;;;;30.45;29.60;100427.97;5025934;28;20087;-66
2022/08/03 12:28:51;;;;;;;1.85;0.80;;;;;;;30.72;29.78;100425.97;5025129;28;20107;-67
2022/08/03 12:31:55;;;;;;;2.83;0.90;;;;;;;30.34;29.94;100434.00;5026376;28;20044;-67
2022/08/03 12:34:59;;;;;;;5.25;1.00;;;;;;;30.13;30.03;100432.38;5026714;28;20576;-66
2022/08/03 12:38:03;;;;;;;2.88;1.02;;;;;;;30.38;29.82;100429.84;5014783;28;20087;-67
2022/08/03 12:41:12;;;;;;;3.60;0.85;;;;;;;31.15;29.09;100417.25;5052715;28;20047;-67
2022/08/03 12:44:15;;;;;;;5.35;0.63;;;;;;;31.31;27.90;100425.88;5067360;28;20101;-67
2022/08/03 12:47:19;;;;;;;3.63;0.80;;;;;;;31.44;28.36;100415.00;5067353;28;20059;-66
2022/08/03 12:50:34;;;;;;;3.55;0.98;;;;;;;31.37;29.45;100419.63;5066619;28;20046;-67
2022/08/03 12:53:37;;;;;;;1.90;0.88;;;;;;;31.32;29.91;100417.53;5065775;28;20496;-74
2022/08/03 12:57:09;;;;;;;3.58;1.00;;;;;;;31.27;28.46;100415.50;5068260;28;20079;-66
2022/08/03 13:00:15;;;;;;;6.85;0.93;;;;;;;31.61;28.08;100407.16;5067364;28;20040;-68
2022/08/03 13:03:19;;;;;;;6.40;1.00;;;;;;;31.63;28.49;100405.06;5068166;28;20474;-65
2022/08/03 13:06:27;;;;;;;3.88;0.80;;;;;;;31.64;28.49;100404.00;5067659;28;20204;-66
2022/08/03 13:09:48;;;;;;;3.92;0.80;;;;;;;31.83;28.21;100404.88;5067665;28;20152;-65
2022/08/03 13:12:52;;;;;;;4.15;1.05;;;;;;;32.08;28.28;100407.56;5068028;28;20087;-65
2022/08/03 13:15:55;;;;;;;3.30;1.10;;;;;;;32.10;27.16;100406.31;5067907;28;20055;-65
2022/08/03 13:18:58;;;;;;;1.85;0.80;;;;;;;32.47;26.71;100400.06;5070321;28;20079;-66
2022/08/03 13:22:11;;;;;;;1.63;0.70;;;;;;;32.97;25.88;100400.69;5047946;28;20072;-66
2022/08/03 13:25:15;;;;;;;5.90;0.90;;;;;;;33.25;25.84;100391.91;5047228;28;20059;-66
2022/08/03 13:28:18;;;;;;;1.95;0.80;;;;;;;33.40;25.22;100391.44;5047721;28;20110;-65
2022/08/03 13:31:21;;;;;;;2.67;0.75;;;;;;;33.50;25.21;100389.00;5057045;28;20075;-66
2022/08/03 13:34:25;;;;;;;3.80;0.80;;;;;;;33.66;25.01;100376.66;5049229;28;20052;-65
2022/08/03 13:37:33;;;;;;;3.80;0.98;;;;;;;33.80;24.89;100377.25;5049192;28;20564;-66
2022/08/03 13:40:36;;;;;;;2.63;0.88;;;;;;;34.10;24.90;100377.09;5048348;28;20047;-66
2022/08/03 13:43:39;;;;;;;2.85;0.98;;;;;;;34.30;23.76;100376.69;5048252;28;20075;-68
2022/08/03 13:46:43;;;;;;;4.68;1.33;;;;;;;34.88;23.45;100369.44;5049257;28;20059;-67
2022/08/03 13:49:46;;;;;;;7.07;0.82;;;;;;;35.07;23.71;100361.88;5049389;28;20505;-66
2022/08/03 13:52:50;;;;;;;4.68;1.00;;;;;;;35.60;22.67;100363.31;5049683;28;20142;-66
2022/08/03 13:55:53;;;;;;;5.65;1.00;;;;;;;35.35;23.06;100359.09;5049331;28;20094;-65
2022/08/03 13:58:57;;;;;;;8.38;1.75;;;;;;;33.70;24.98;100355.34;5048997;28;20586;-65
2022/08/03 14:02:00;;;;;;;3.63;0.75;;;;;;;33.26;25.31;100365.66;5048919;28;20067;-66
2022/08/03 14:05:04;;;;;;;4.53;0.98;;;;;;;33.39;24.44;100354.56;5048651;28;20052;-65
2022/08/03 14:08:08;;;;;;;3.58;1.00;;;;;;;35.32;22.86;100345.16;5049186;28;20531;-66
2022/08/03 14:11:11;;;;;;;3.88;0.77;;;;;;;33.49;24.84;100346.72;5048979;28;20040;-65
2022/08/03 14:14:15;;;;;;;2.75;1.13;;;;;;;34.00;24.41;100341.59;5048457;28;20091;-65
2022/08/03 14:17:19;;;;;;;3.17;0.90;;;;;;;34.79;23.00;100335.59;5048187;28;20091;-65
2022/08/03 14:20:48;;;;;;;5.03;1.00;;;;;;;39.71;18.37;100331.81;5048407;28;20051;-66
2022/08/03 14:23:51;;;;;;;4.47;1.85;;;;;;;41.49;16.39;100328.25;5048708;28;20052;-65
2022/08/03 14:26:56;;;;;;;5.03;1.67;;;;;;;44.23;15.55;100323.25;5047953;28;20087;-65
2022/08/03 14:30:00;;;;;;;5.43;1.38;;;;;;;44.96;13.83;100322.09;5048996;28;20036;-66
2022/08/03 14:33:03;;;;;;;8.43;1.58;;;;;;;45.11;13.04;100322.84;5048309;28;20048;-66
2022/08/03 14:36:07;;;;;;;6.38;1.92;;;;;;;45.30;13.33;100317.88;5048510;28;20417;-66
2022/08/03 14:39:10;;;;;;;5.07;1.27;;;;;;;46.10;12.29;100304.81;5048802;28;20052;-66
2022/08/03 14:42:15;;;;;;;3.78;1.60;;;;;;;45.61;12.79;100306.03;5048829;28;20076;-66
2022/08/03 14:45:19;;;;;;;3.58;1.60;;;;;;;45.61;13.12;100301.31;5048937;28;20449;-65
2022/08/03 14:48:23;;;;;;;2.10;1.13;;;;;;;45.29;12.95;100294.19;5059372;28;20508;-65
2022/08/03 14:51:28;;;;;;;2.33;1.23;;;;;;;45.49;13.02;100287.31;5048140;28;20123;-65
2022/08/03 14:54:31;;;;;;;3.83;1.42;;;;;;;45.26;13.69;100289.31;5047937;28;20078;-64
2022/08/03 14:57:34;;;;;;;6.68;1.27;;;;;;;45.44;13.41;100279.13;5047723;28;20082;-65
2022/08/03 15:00:38;;;;;;;3.15;1.27;;;;;;;45.26;12.83;100281.03;5048044;28;20516;-64
2022/08/03 15:03:42;;;;;;;3.25;1.10;;;;;;;44.31;13.79;100275.69;5048594;28;20052;-65
2022/08/03 15:06:45;;;;;;;3.92;1.50;;;;;;;44.90;13.14;100281.97;5048608;28;20501;-66
2022/08/03 15:09:49;;;;;;;5.43;1.30;;;;;;;46.80;12.39;100268.88;5048605;28;20072;-65
2022/08/03 15:12:54;;;;;;;10.70;2.85;;;;;;;46.17;13.13;100262.88;5047916;28;20048;-66
2022/08/03 15:15:57;;;;;;;6.75;1.20;;;;;;;44.07;12.78;100276.78;5048068;28;20040;-65
2022/08/03 15:19:00;;;;;;;3.85;1.65;;;;;;;44.15;13.86;100271.66;5051771;28;20048;-65
2022/08/03 15:22:04;;;;;;;5.80;1.33;;;;;;;43.35;14.05;100276.59;5052360;28;20190;-65
2022/08/03 15:25:08;;;;;;;4.88;1.38;;;;;;;45.44;12.55;100263.41;5052387;28;20422;-65
2022/08/03 15:28:11;;;;;;;2.35;1.15;;;;;;;42.77;14.39;100257.84;5050712;28;20043;-65
2022/08/03 15:31:19;;;;;;;2.20;1.13;;;;;;;42.20;14.88;100261.44;5051354;28;20084;-65
2022/08/03 15:34:22;;;;;;;5.97;1.02;;;;;;;44.56;13.04;100253.00;5051467;28;20148;-64
2022/08/03 15:37:26;;;;;;;2.38;1.10;;;;;;;45.54;12.87;100253.19;5050791;28;20044;-65
2022/08/03 15:40:29;;;;;;;4.05;1.17;;;;;;;45.98;12.91;100243.06;5051410;28;20087;-66
2022/08/03 15:43:32;;;;;;;3.05;1.08;;;;;;;43.98;14.33;100245.56;5051870;28;20055;-64
2022/08/03 15:46:36;;;;;;;4.05;1.20;;;;;;;44.56;14.01;100246.69;5051865;28;20688;-65
2022/08/03 15:49:39;;;;;;;2.20;0.90;;;;;;;44.16;13.66;100242.94;5051291;28;20043;-65
2022/08/03 15:52:42;;;;;;;3.92;0.88;;;;;;;44.90;13.30;100237.84;5051559;28;20133;-64
2022/08/03 15:55:46;;;;;;;2.80;1.00;;;;;;;43.89;13.86;100236.38;5051254;28;20043;-65
2022/08/03 15:58:49;;;;;;;3.60;1.27;;;;;;;44.00;13.53;100242.50;5051376;28;20723;-65
2022/08/03 16:01:55;;;;;;;3.83;1.08;;;;;;;41.84;14.53;100224.59;5051783;28;20067;-65
2022/08/03 16:04:59;;;;;;;3.95;0.80;;;;;;;41.93;14.47;100237.41;5051294;28;20055;-65
2022/08/03 16:08:02;;;;;;;4.75;0.88;;;;;;;41.21;15.03;100226.44;5051105;28;20128;-65
2022/08/03 16:11:05;;;;;;;3.13;0.90;;;;;;;39.61;17.12;100233.31;5050816;28;20078;-64
2022/08/03 16:14:09;;;;;;;3.60;1.08;;;;;;;41.23;16.44;100228.88;5050677;28;20052;-66
2022/08/03 16:17:13;;;;;;;6.30;1.40;;;;;;;42.25;14.95;100222.91;5050497;28;20072;-65
2022/08/03 16:20:16;;;;;;;3.90;1.20;;;;;;;42.59;14.36;100224.56;5051024;28;20036;-65
2022/08/03 16:23:20;;;;;;;4.20;1.15;;;;;;;41.26;15.81;100212.69;5051085;28;20048;-65
2022/08/03 16:26:23;;;;;;;3.22;1.08;;;;;;;40.73;15.79;100214.59;5050043;28;20051;-64
2022/08/03 16:29:27;;;;;;;4.80;0.90;;;;;;;38.52;18.17;100216.56;5050384;28;20040;-64
2022/08/03 16:32:30;;;;;;;3.85;0.80;;;;;;;36.28;20.02;100216.94;5050130;28;20048;-64
2022/08/03 16:35:34;;;;;;;5.32;0.90;;;;;;;36.95;19.77;100213.75;5050630;28;20414;-64
2022/08/03 16:38:37;;;;;;;3.60;0.82;;;;;;;36.46;20.10;100218.50;5050509;28;20060;-64
2022/08/03 16:41:41;;;;;;;2.75;0.90;;;;;;;36.18;21.99;100223.13;5051054;28;20051;-64
2022/08/03 16:44:44;;;;;;;2.00;0.73;;;;;;;35.84;21.78;100217.84;5050901;28;20124;-63
2022/08/03 16:47:48;;;;;;;2.47;1.02;;;;;;;35.78;21.51;100213.41;5050048;28;20608;-63
2022/08/03 16:50:51;;;;;;;4.43;0.95;;;;;;;34.62;25.02;100214.19;5050372;28;20044;-63
2022/08/03 16:53:54;;;;;;;2.92;0.82;;;;;;;34.81;24.42;100209.31;5050030;28;20056;-63
2022/08/03 16:56:58;;;;;;;2.65;0.80;;;;;;;34.38;25.07;100216.19;5050386;28;20047;-63
2022/08/03 17:00:01;;;;;;;2.72;0.85;;;;;;;34.07;25.08;100211.28;5050501;28;20043;-63
2022/08/03 17:03:07;;;;;;;2.30;1.00;;;;;;;33.90;25.46;100214.72;5050550;28;20036;-63
2022/08/03 17:06:11;;;;;;;4.32;0.98;;;;;;;33.78;25.14;100219.38;5050112;28;20055;-62
2022/08/03 17:09:17;;;;;;;7.15;0.93;;;;;;;33.50;26.58;100217.44;5049820;28;20090;-63
2022/08/03 17:12:21;;;;;;;2.35;0.75;;;;;;;33.34;26.08;100217.09;5050222;28;20124;-64
2022/08/03 17:15:24;;;;;;;6.07;1.00;;;;;;;33.10;26.59;100216.28;5049960;28;20059;-64
2022/08/03 17:18:32;;;;;;;5.75;0.90;;;;;;;32.77;28.50;100215.97;5050340;28;20087;-63
2022/08/03 17:21:38;;;;;;;1.90;0.80;;;;;;;32.36;30.54;100220.34;5050374;28;20049;-64
2022/08/03 17:25:06;;;;;;;5.78;0.95;;;;;;;32.10;31.58;100224.25;5050037;28;20114;-63
2022/08/03 17:28:12;;;;;;;5.15;0.88;;;;;;;32.14;30.36;100220.88;5049689;28;20099;-64
2022/08/03 17:31:17;;;;;;;3.83;1.00;;;;;;;32.09;30.49;100223.41;5049546;28;21876;-62
2022/08/03 17:34:20;;;;;;;3.83;0.90;;;;;;;31.87;30.87;100233.03;5049348;28;20425;-62
2022/08/03 17:37:25;;;;;;;6.50;0.80;;;;;;;31.86;31.20;100226.81;5049559;28;20055;-63
2022/08/03 17:40:28;;;;;;;5.20;0.95;;;;;;;31.76;30.92;100228.41;5049221;28;20128;-63
2022/08/03 17:43:34;;;;;;;7.47;0.82;;;;;;;31.63;31.11;100227.50;5049948;28;20094;-63
2022/08/03 17:46:38;;;;;;;5.60;1.00;;;;;;;31.46;32.28;100227.28;5049632;28;20462;-63
2022/08/03 17:49:41;;;;;;;4.05;0.90;;;;;;;31.55;31.94;100227.81;5049380;28;20079;-63
2022/08/03 17:52:47;;;;;;;13.50;2.05;;;;;;;31.49;32.52;100228.69;5049173;28;20446;-63
2022/08/03 17:56:15;;;;;;;3.35;1.92;;;;;;;31.41;33.70;100239.81;5048660;28;20063;-63
2022/08/03 17:59:38;;;;;;;6.93;2.22;;;;;;;31.22;33.95;100237.06;5048948;28;20087;-62
2022/08/03 18:06:11;;;;;;;10.02;1.77;;;;;;;30.74;35.11;100245.75;5049577;28;20044;-63
2022/08/03 18:09:15;;;;;;;3.47;1.55;;;;;;;30.60;35.40;100244.22;5048977;28;20047;-63
2022/08/03 18:12:27;;;;;;;9.02;1.88;;;;;;;30.38;36.23;100240.19;5048623;28;20052;-63
2022/08/03 18:15:41;;;;;;;3.58;1.90;;;;;;;30.17;36.22;100244.84;5049494;28;20636;-65
2022/08/03 18:18:52;;;;;;;7.80;1.50;;;;;;;29.98;37.19;100256.56;5049338;28;20044;-64
2022/08/03 18:21:57;;;;;;;6.05;1.77;;;;;;;29.97;37.61;100247.63;5048731;28;20051;-64
2022/08/03 18:25:03;;;;;;;6.15;1.35;;;;;;;29.52;37.64;100242.16;5047576;28;20052;-64
2022/08/03 18:28:10;;;;;;;5.80;1.08;;;;;;;29.45;38.23;100252.09;5048197;28;20156;-64
2022/08/03 18:31:14;;;;;;;4.07;1.25;;;;;;;29.23;39.48;100248.00;5047491;28;20068;-63
2022/08/03 18:34:19;;;;;;;7.15;1.25;;;;;;;29.16;40.03;100253.41;5047734;28;20680;-64
2022/08/03 18:37:24;;;;;;;6.05;1.67;;;;;;;28.91;40.06;100245.94;5047991;28;20136;-64
2022/08/03 18:40:28;;;;;;;7.00;1.20;;;;;;;28.81;40.19;100261.66;5048176;28;20493;-64
2022/08/03 18:43:33;;;;;;;2.92;1.15;;;;;;;28.69;41.12;100260.63;5048991;28;20056;-66